Wetterdaten: Woche 20.08.12 - 26.08.12 (KW34)
Datum Zeit Temp. Innen Temp. Aussen UV X Diff Temp. Feuchte Inne Feuchte Auss Sonnenschein Luftdruck Regen ab 0,1 Wind Sonnenschein T Regendauer Windben
20.08.2012 00:00 28,6 C 25,4 C 0,0 UV-I 0,0 C 62 % 80 % 0 % 1014,6 hPa 0,0 l/m 0,0 km/h (0 Bft) 0,00 h 0,00 h 0,0 km/h (0 Bft)
20.08.2012 01:00 28,4 C 24,5 C 0,0 UV-I 0,0 C 63 % 83 % 0 % 1014,5 hPa 0,0 l/m 0,0 km/h (0 Bft) 0,00 h 0,00 h 0,0 km/h (0 Bft)
20.08.2012 02:00 28,2 C 23,9 C 0,0 UV-I 0,0 C 63 % 86 % 0 % 1014,5 hPa 0,0 l/m 0,0 km/h (0 Bft) 0,00 h 0,00 h 0,0 km/h (0 Bft)
20.08.2012 03:00 28,1 C 23,5 C 0,0 UV-I 0,0 C 63 % 87 % 0 % 1015,0 hPa 0,0 l/m 0,0 km/h (0 Bft) 0,00 h 0,00 h 0,0 km/h (0 Bft)
20.08.2012 04:00 28,0 C 23,5 C 0,0 UV-I 0,0 C 63 % 87 % 0 % 1015,2 hPa 0,0 l/m 0,0 km/h (0 Bft) 0,00 h 0,07 h 0,0 km/h (0 Bft)
20.08.2012 05:00 27,9 C 23,4 C 0,0 UV-I 0,0 C 64 % 88 % 0 % 1015,8 hPa 0,0 l/m 0,3 km/h (0 Bft) 0,00 h 0,03 h 0,8 km/h (0 Bft)
20.08.2012 06:00 27,8 C 23,0 C 0,0 UV-I 0,0 C 63 % 85 % 0 % 1016,7 hPa 0,0 l/m 1,4 km/h (1 Bft) 0,00 h 0,00 h 3,1 km/h (1 Bft)
20.08.2012 07:00 27,6 C 22,2 C 0,0 UV-I 0,0 C 62 % 84 % 1 % 1017,3 hPa 0,0 l/m 1,9 km/h (1 Bft) 0,00 h 0,00 h 3,4 km/h (1 Bft)
20.08.2012 08:00 27,6 C 22,4 C 0,3 UV-I 1,6 C 61 % 84 % 44 % 1017,6 hPa 0,0 l/m 1,7 km/h (1 Bft) 0,27 h 0,00 h 3,0 km/h (1 Bft)
20.08.2012 09:00 27,6 C 23,5 C 1,2 UV-I 6,2 C 61 % 82 % 100 % 1018,0 hPa 0,0 l/m 2,8 km/h (1 Bft) 1,00 h 0,00 h 7,0 km/h (2 Bft)
20.08.2012 10:00 27,7 C 25,1 C 2,9 UV-I 7,3 C 61 % 77 % 100 % 1018,2 hPa 0,0 l/m 4,2 km/h (1 Bft) 1,00 h 0,00 h 7,2 km/h (2 Bft)
20.08.2012 11:00 27,8 C 26,3 C 2,8 UV-I 5,2 C 61 % 73 % 100 % 1018,4 hPa 0,0 l/m 4,0 km/h (1 Bft) 1,00 h 0,00 h 6,5 km/h (2 Bft)
20.08.2012 12:00 28,1 C 28,2 C 3,7 UV-I 7,2 C 61 % 67 % 100 % 1018,4 hPa 0,0 l/m 5,4 km/h (1 Bft) 1,00 h 0,00 h 7,8 km/h (2 Bft)
20.08.2012 13:00 28,5 C 29,2 C 2,7 UV-I 5,7 C 60 % 62 % 100 % 1018,6 hPa 0,0 l/m 4,2 km/h (1 Bft) 1,00 h 0,00 h 5,5 km/h (1 Bft)
20.08.2012 14:00 29,2 C 29,6 C 2,3 UV-I 4,3 C 57 % 59 % 100 % 1019,3 hPa 0,0 l/m 4,5 km/h (1 Bft) 1,00 h 0,00 h 7,2 km/h (2 Bft)
20.08.2012 15:00 29,5 C 28,9 C 0,8 UV-I 2,0 C 56 % 62 % 52 % 1019,4 hPa 0,0 l/m 4,0 km/h (1 Bft) 0,37 h 0,30 h 5,4 km/h (1 Bft)
20.08.2012 16:00 29,5 C 27,6 C 0,8 UV-I 1,4 C 58 % 70 % 41 % 1019,2 hPa 0,1 l/m 2,1 km/h (1 Bft) 0,00 h 0,13 h 3,7 km/h (1 Bft)
20.08.2012 17:00 29,3 C 27,5 C 0,4 UV-I 1,2 C 58 % 69 % 35 % 1019,0 hPa 0,0 l/m 2,7 km/h (1 Bft) 0,00 h 0,00 h 3,3 km/h (1 Bft)
20.08.2012 18:00 29,0 C 26,9 C 0,1 UV-I 0,3 C 58 % 68 % 8 % 1019,0 hPa 0,0 l/m 3,1 km/h (1 Bft) 0,00 h 0,00 h 5,1 km/h (1 Bft)
20.08.2012 19:00 28,8 C 26,2 C 0,0 UV-I 0,1 C 58 % 68 % 4 % 1019,0 hPa 0,0 l/m 5,2 km/h (1 Bft) 0,00 h 0,00 h 7,7 km/h (2 Bft)
20.08.2012 20:00 28,5 C 24,7 C 0,0 UV-I 0,0 C 58 % 72 % 0 % 1019,1 hPa 0,0 l/m 1,8 km/h (1 Bft) 0,00 h 0,00 h 2,7 km/h (1 Bft)
20.08.2012 21:00 28,1 C 23,4 C 0,0 UV-I 0,0 C 59 % 76 % 0 % 1019,6 hPa 0,0 l/m 0,1 km/h (0 Bft) 0,00 h 0,00 h 0,2 km/h (0 Bft)
20.08.2012 22:00 27,9 C 22,3 C 0,0 UV-I 0,0 C 59 % 79 % 0 % 1019,5 hPa 0,0 l/m 0,0 km/h (0 Bft) 0,00 h 0,00 h 0,0 km/h (0 Bft)
20.08.2012 23:00 27,6 C 21,0 C 0,0 UV-I 0,0 C 59 % 83 % 0 % 1019,8 hPa 0,0 l/m 0,0 km/h (0 Bft) 0,00 h 0,03 h 0,0 km/h (0 Bft)
21.08.2012 00:00 27,3 C 20,2 C 0,0 UV-I 0,0 C 59 % 86 % 0 % 1019,7 hPa 0,0 l/m 0,0 km/h (0 Bft) 0,00 h 0,00 h 0,0 km/h (0 Bft)
21.08.2012 01:00 27,1 C 19,5 C 0,0 UV-I 0,0 C 60 % 89 % 0 % 1019,8 hPa 0,0 l/m 0,0 km/h (0 Bft) 0,00 h 0,00 h 0,0 km/h (0 Bft)
21.08.2012 02:00 26,9 C 19,4 C 0,0 UV-I 0,0 C 61 % 91 % 0 % 1019,8 hPa 0,0 l/m 0,0 km/h (0 Bft) 0,00 h 0,03 h 0,0 km/h (0 Bft)
21.08.2012 03:00 26,8 C 19,1 C 0,0 UV-I 0,0 C 61 % 92 % 0 % 1019,6 hPa 0,0 l/m 0,0 km/h (0 Bft) 0,00 h 0,03 h 0,0 km/h (0 Bft)
21.08.2012 04:00 26,6 C 18,8 C 0,0 UV-I 0,0 C 61 % 92 % 0 % 1019,5 hPa 0,0 l/m 0,0 km/h (0 Bft) 0,00 h 0,00 h 0,0 km/h (0 Bft)
21.08.2012 05:00 26,5 C 18,5 C 0,0 UV-I 0,0 C 61 % 93 % 0 % 1019,0 hPa 0,0 l/m 0,0 km/h (0 Bft) 0,00 h 0,03 h 0,0 km/h (0 Bft)
21.08.2012 06:00 26,4 C 18,0 C 0,0 UV-I 0,0 C 61 % 94 % 0 % 1018,7 hPa 0,0 l/m 0,0 km/h (0 Bft) 0,00 h 0,00 h 0,0 km/h (0 Bft)
21.08.2012 07:00 26,2 C 18,0 C 0,0 UV-I 0,1 C 61 % 94 % 1 % 1018,3 hPa 0,0 l/m 0,0 km/h (0 Bft) 0,00 h 0,00 h 0,0 km/h (0 Bft)
21.08.2012 08:00 26,3 C 19,2 C 0,3 UV-I 2,0 C 61 % 95 % 56 % 1018,0 hPa 0,0 l/m 0,0 km/h (0 Bft) 0,27 h 0,00 h 0,0 km/h (0 Bft)
21.08.2012 09:00 26,6 C 21,8 C 0,9 UV-I 5,0 C 61 % 91 % 98 % 1017,8 hPa 0,0 l/m 0,7 km/h (0 Bft) 1,00 h 0,00 h 2,2 km/h (1 Bft)
21.08.2012 10:00 26,9 C 23,8 C 1,2 UV-I 4,1 C 61 % 82 % 100 % 1017,2 hPa 0,0 l/m 0,8 km/h (0 Bft) 1,00 h 0,00 h 1,6 km/h (1 Bft)
21.08.2012 11:00 27,2 C 24,6 C 1,6 UV-I 4,0 C 60 % 77 % 93 % 1016,9 hPa 0,0 l/m 0,7 km/h (0 Bft) 0,83 h 0,00 h 0,9 km/h (0 Bft)
21.08.2012 12:00 27,5 C 25,7 C 2,2 UV-I 5,6 C 60 % 73 % 100 % 1016,2 hPa 0,0 l/m 3,3 km/h (1 Bft) 1,00 h 0,00 h 5,6 km/h (1 Bft)
21.08.2012 13:00 27,9 C 26,9 C 2,7 UV-I 6,1 C 60 % 70 % 100 % 1015,5 hPa 0,0 l/m 3,8 km/h (1 Bft) 1,00 h 0,00 h 6,2 km/h (2 Bft)
21.08.2012 14:00 28,6 C 28,2 C 3,0 UV-I 6,1 C 58 % 63 % 100 % 1015,4 hPa 0,0 l/m 3,9 km/h (1 Bft) 1,00 h 0,00 h 6,5 km/h (2 Bft)
21.08.2012 15:00 29,7 C 28,9 C 3,3 UV-I 6,3 C 54 % 58 % 100 % 1014,4 hPa 0,0 l/m 5,2 km/h (1 Bft) 1,00 h 0,00 h 8,9 km/h (2 Bft)
21.08.2012 16:00 30,6 C 28,8 C 2,4 UV-I 5,0 C 51 % 58 % 99 % 1013,4 hPa 0,0 l/m 6,6 km/h (2 Bft) 1,00 h 0,00 h 9,0 km/h (2 Bft)
21.08.2012 17:00 30,2 C 28,0 C 1,0 UV-I 2,0 C 52 % 60 % 58 % 1013,5 hPa 0,0 l/m 4,9 km/h (1 Bft) 0,07 h 0,00 h 6,6 km/h (2 Bft)
21.08.2012 18:00 29,6 C 27,6 C 0,4 UV-I 1,0 C 54 % 62 % 28 % 1013,3 hPa 0,0 l/m 3,9 km/h (1 Bft) 0,00 h 0,00 h 7,6 km/h (2 Bft)
21.08.2012 19:00 29,1 C 26,3 C 0,0 UV-I 0,0 C 56 % 66 % 0 % 1013,0 hPa 0,0 l/m 1,2 km/h (1 Bft) 0,00 h 0,00 h 1,2 km/h (1 Bft)
21.08.2012 20:00 28,6 C 25,1 C 0,0 UV-I 0,0 C 57 % 71 % 0 % 1013,1 hPa 0,0 l/m 0,0 km/h (0 Bft) 0,00 h 0,00 h 0,1 km/h (0 Bft)
21.08.2012 21:00 28,3 C 24,1 C 0,0 UV-I 0,0 C 58 % 75 % 0 % 1013,3 hPa 0,0 l/m 1,0 km/h (0 Bft) 0,00 h 0,00 h 2,5 km/h (1 Bft)
21.08.2012 22:00 28,0 C 23,3 C 0,0 UV-I 0,0 C 58 % 74 % 0 % 1013,8 hPa 0,0 l/m 1,3 km/h (1 Bft) 0,00 h 0,00 h 1,9 km/h (1 Bft)
21.08.2012 23:00 27,8 C 22,0 C 0,0 UV-I 0,0 C 59 % 76 % 0 % 1013,9 hPa 0,0 l/m 0,1 km/h (0 Bft) 0,00 h 0,00 h 0,2 km/h (0 Bft)
22.08.2012 00:00 27,6 C 20,8 C 0,0 UV-I 0,0 C 59 % 79 % 0 % 1013,7 hPa 0,0 l/m 0,0 km/h (0 Bft) 0,00 h 0,00 h 0,0 km/h (0 Bft)
22.08.2012 01:00 27,4 C 20,2 C 0,0 UV-I 0,0 C 58 % 80 % 0 % 1013,7 hPa 0,0 l/m 0,1 km/h (0 Bft) 0,00 h 0,00 h 0,7 km/h (0 Bft)
22.08.2012 02:00 27,2 C 20,0 C 0,0 UV-I 0,0 C 58 % 76 % 0 % 1013,8 hPa 0,0 l/m 1,3 km/h (1 Bft) 0,00 h 0,00 h 3,0 km/h (1 Bft)
22.08.2012 03:00 27,1 C 19,6 C 0,0 UV-I 0,0 C 57 % 74 % 0 % 1014,0 hPa 0,0 l/m 1,4 km/h (1 Bft) 0,00 h 0,07 h 3,2 km/h (1 Bft)
22.08.2012 04:00 26,9 C 19,0 C 0,0 UV-I 0,0 C 56 % 73 % 0 % 1014,1 hPa 0,0 l/m 3,1 km/h (1 Bft) 0,00 h 0,10 h 5,5 km/h (1 Bft)
22.08.2012 05:00 26,7 C 18,3 C 0,0 UV-I 0,0 C 55 % 73 % 0 % 1014,8 hPa 0,0 l/m 2,6 km/h (1 Bft) 0,00 h 0,00 h 3,9 km/h (1 Bft)
22.08.2012 06:00 26,4 C 17,7 C 0,0 UV-I 0,0 C 55 % 76 % 0 % 1015,0 hPa 0,0 l/m 2,8 km/h (1 Bft) 0,00 h 0,00 h 4,1 km/h (1 Bft)
22.08.2012 07:00 26,2 C 17,4 C 0,0 UV-I 0,0 C 55 % 80 % 0 % 1015,7 hPa 0,0 l/m 5,3 km/h (1 Bft) 0,00 h 0,00 h 8,3 km/h (2 Bft)
22.08.2012 08:00 26,1 C 17,5 C 0,3 UV-I 0,9 C 55 % 82 % 25 % 1016,3 hPa 0,0 l/m 5,1 km/h (1 Bft) 0,00 h 0,00 h 7,3 km/h (2 Bft)
22.08.2012 09:00 26,2 C 18,0 C 0,5 UV-I 2,1 C 55 % 82 % 60 % 1016,7 hPa 0,0 l/m 5,4 km/h (1 Bft) 0,00 h 0,00 h 10,1 km/h (2 Bft)
22.08.2012 10:00 26,3 C 19,0 C 2,4 UV-I 5,2 C 53 % 77 % 94 % 1017,1 hPa 0,0 l/m 7,6 km/h (2 Bft) 0,87 h 0,00 h 11,5 km/h (2 Bft)
22.08.2012 11:00 26,5 C 20,5 C 3,9 UV-I 6,0 C 53 % 70 % 100 % 1017,3 hPa 0,0 l/m 7,7 km/h (2 Bft) 1,00 h 0,00 h 11,9 km/h (2 Bft)
22.08.2012 12:00 26,7 C 21,8 C 3,4 UV-I 5,9 C 52 % 63 % 100 % 1017,3 hPa 0,0 l/m 7,7 km/h (2 Bft) 1,00 h 0,00 h 10,6 km/h (2 Bft)
22.08.2012 13:00 27,1 C 22,7 C 3,2 UV-I 5,0 C 50 % 58 % 100 % 1017,1 hPa 0,0 l/m 8,8 km/h (2 Bft) 1,00 h 0,00 h 11,1 km/h (2 Bft)
22.08.2012 14:00 28,0 C 23,5 C 2,7 UV-I 4,5 C 48 % 56 % 98 % 1017,7 hPa 0,0 l/m 8,0 km/h (2 Bft) 1,00 h 0,00 h 10,8 km/h (2 Bft)
22.08.2012 15:00 28,7 C 23,5 C 2,3 UV-I 3,6 C 46 % 54 % 90 % 1016,8 hPa 0,0 l/m 7,7 km/h (2 Bft) 0,73 h 0,00 h 11,2 km/h (2 Bft)
22.08.2012 16:00 29,3 C 23,6 C 2,9 UV-I 3,6 C 45 % 52 % 93 % 1015,8 hPa 0,0 l/m 8,2 km/h (2 Bft) 0,77 h 0,00 h 13,8 km/h (3 Bft)
22.08.2012 17:00 29,7 C 23,6 C 2,1 UV-I 3,3 C 43 % 50 % 88 % 1016,0 hPa 0,0 l/m 6,3 km/h (2 Bft) 0,73 h 0,00 h 11,0 km/h (2 Bft)
22.08.2012 18:00 29,0 C 22,8 C 0,7 UV-I 0,8 C 44 % 50 % 24 % 1016,2 hPa 0,0 l/m 5,4 km/h (1 Bft) 0,00 h 0,00 h 6,2 km/h (2 Bft)
22.08.2012 19:00 28,3 C 21,8 C 0,1 UV-I 0,0 C 44 % 52 % 1 % 1016,3 hPa 0,0 l/m 3,1 km/h (1 Bft) 0,00 h 0,00 h 5,2 km/h (1 Bft)
22.08.2012 20:00 27,6 C 20,5 C 0,0 UV-I 0,0 C 46 % 57 % 0 % 1016,3 hPa 0,0 l/m 0,3 km/h (0 Bft) 0,00 h 0,00 h 0,1 km/h (0 Bft)
22.08.2012 21:00 27,0 C 18,9 C 0,0 UV-I 0,0 C 47 % 63 % 0 % 1016,8 hPa 0,0 l/m 0,0 km/h (0 Bft) 0,00 h 0,00 h 0,0 km/h (0 Bft)
22.08.2012 22:00 26,6 C 17,5 C 0,0 UV-I 0,0 C 48 % 68 % 0 % 1017,0 hPa 0,0 l/m 0,0 km/h (0 Bft) 0,00 h 0,00 h 0,0 km/h (0 Bft)
22.08.2012 23:00 26,2 C 16,2 C 0,0 UV-I 0,0 C 49 % 73 % 0 % 1017,2 hPa 0,0 l/m 0,0 km/h (0 Bft) 0,00 h 0,00 h 0,0 km/h (0 Bft)
23.08.2012 00:00 25,9 C 15,5 C 0,0 UV-I 0,0 C 50 % 78 % 0 % 1017,4 hPa 0,0 l/m 0,0 km/h (0 Bft) 0,00 h 0,00 h 0,0 km/h (0 Bft)
23.08.2012 01:00 25,6 C 14,8 C 0,0 UV-I 0,0 C 51 % 83 % 0 % 1017,5 hPa 0,0 l/m 0,0 km/h (0 Bft) 0,00 h 0,00 h 0,0 km/h (0 Bft)
23.08.2012 02:00 25,3 C 14,0 C 0,0 UV-I 0,0 C 52 % 85 % 0 % 1017,2 hPa 0,0 l/m 0,0 km/h (0 Bft) 0,00 h 0,00 h 0,0 km/h (0 Bft)
23.08.2012 03:00 25,1 C 13,6 C 0,0 UV-I 0,0 C 52 % 86 % 0 % 1017,0 hPa 0,0 l/m 0,1 km/h (0 Bft) 0,00 h 0,03 h 0,2 km/h (0 Bft)
23.08.2012 04:00 24,9 C 13,4 C 0,0 UV-I 0,0 C 52 % 87 % 0 % 1016,7 hPa 0,0 l/m 0,1 km/h (0 Bft) 0,00 h 0,03 h 0,7 km/h (0 Bft)
23.08.2012 05:00 24,7 C 12,9 C 0,0 UV-I 0,0 C 52 % 88 % 0 % 1016,7 hPa 0,0 l/m 0,1 km/h (0 Bft) 0,00 h 0,03 h 0,4 km/h (0 Bft)
23.08.2012 06:00 24,5 C 12,8 C 0,0 UV-I 0,0 C 52 % 89 % 0 % 1016,5 hPa 0,0 l/m 0,3 km/h (0 Bft) 0,00 h 0,00 h 0,8 km/h (0 Bft)
23.08.2012 07:00 24,4 C 13,0 C 0,0 UV-I 0,0 C 52 % 88 % 0 % 1016,7 hPa 0,0 l/m 0,7 km/h (0 Bft) 0,00 h 0,00 h 1,7 km/h (1 Bft)
23.08.2012 08:00 24,2 C 14,0 C 0,3 UV-I 1,9 C 51 % 87 % 31 % 1017,0 hPa 0,0 l/m 1,3 km/h (1 Bft) 0,30 h 0,00 h 2,5 km/h (1 Bft)
23.08.2012 09:00 24,4 C 15,9 C 1,2 UV-I 9,0 C 52 % 84 % 100 % 1017,1 hPa 0,0 l/m 1,5 km/h (1 Bft) 0,87 h 0,00 h 4,3 km/h (1 Bft)
23.08.2012 10:00 24,4 C 18,6 C 3,9 UV-I 9,2 C 52 % 73 % 100 % 1016,7 hPa 0,0 l/m 2,0 km/h (1 Bft) 0,40 h 0,00 h 2,6 km/h (1 Bft)
23.08.2012 11:00 24,6 C 20,5 C 5,2 UV-I 8,4 C 51 % 62 % 100 % 1016,3 hPa 0,0 l/m 3,6 km/h (1 Bft) 0,47 h 0,00 h 7,2 km/h (2 Bft)
23.08.2012 12:00 25,1 C 21,8 C 4,0 UV-I 7,8 C 50 % 57 % 100 % 1015,8 hPa 0,0 l/m 3,9 km/h (1 Bft) 1,00 h 0,00 h 5,0 km/h (1 Bft)
23.08.2012 13:00 25,9 C 23,0 C 3,9 UV-I 7,2 C 48 % 49 % 100 % 1015,6 hPa 0,0 l/m 4,1 km/h (1 Bft) 1,00 h 0,00 h 6,8 km/h (2 Bft)
23.08.2012 14:00 27,4 C 24,0 C 3,8 UV-I 6,8 C 45 % 46 % 100 % 1016,2 hPa 0,0 l/m 3,4 km/h (1 Bft) 1,00 h 0,00 h 4,7 km/h (1 Bft)
23.08.2012 15:00 29,0 C 24,8 C 4,4 UV-I 6,2 C 41 % 43 % 100 % 1014,2 hPa 0,0 l/m 4,7 km/h (1 Bft) 1,00 h 0,00 h 6,8 km/h (2 Bft)
23.08.2012 16:00 30,4 C 25,2 C 4,7 UV-I 6,0 C 38 % 40 % 100 % 1012,8 hPa 0,0 l/m 4,6 km/h (1 Bft) 1,00 h 0,00 h 6,9 km/h (2 Bft)
23.08.2012 17:00 30,6 C 25,5 C 3,3 UV-I 4,7 C 37 % 40 % 95 % 1012,6 hPa 0,0 l/m 2,7 km/h (1 Bft) 0,87 h 0,00 h 3,6 km/h (1 Bft)
23.08.2012 18:00 29,3 C 24,2 C 0,7 UV-I 0,4 C 39 % 42 % 10 % 1012,2 hPa 0,0 l/m 3,9 km/h (1 Bft) 0,00 h 0,00 h 6,2 km/h (2 Bft)
23.08.2012 19:00 28,4 C 22,9 C 0,2 UV-I 0,0 C 41 % 46 % 1 % 1011,4 hPa 0,0 l/m 5,2 km/h (1 Bft) 0,00 h 0,00 h 6,2 km/h (2 Bft)
23.08.2012 20:00 27,5 C 21,1 C 0,0 UV-I 0,0 C 43 % 51 % 0 % 1011,2 hPa 0,0 l/m 2,8 km/h (1 Bft) 0,00 h 0,00 h 2,7 km/h (1 Bft)
23.08.2012 21:00 26,9 C 18,6 C 0,0 UV-I 0,0 C 44 % 59 % 0 % 1011,2 hPa 0,0 l/m 0,0 km/h (0 Bft) 0,00 h 0,00 h 0,0 km/h (0 Bft)
23.08.2012 22:00 26,4 C 17,2 C 0,0 UV-I 0,0 C 45 % 65 % 0 % 1010,7 hPa 0,0 l/m 0,0 km/h (0 Bft) 0,00 h 0,00 h 0,0 km/h (0 Bft)
23.08.2012 23:00 26,1 C 16,8 C 0,0 UV-I 0,0 C 46 % 69 % 0 % 1010,0 hPa 0,0 l/m 0,0 km/h (0 Bft) 0,00 h 0,03 h 0,0 km/h (0 Bft)
24.08.2012 00:00 25,9 C 16,7 C 0,0 UV-I 0,0 C 47 % 73 % 0 % 1010,0 hPa 0,2 l/m 0,2 km/h (0 Bft) 0,00 h 0,50 h 0,1 km/h (0 Bft)
24.08.2012 01:00 25,7 C 16,5 C 0,0 UV-I 0,0 C 48 % 80 % 0 % 1009,1 hPa 0,2 l/m 2,6 km/h (1 Bft) 0,00 h 0,57 h 3,7 km/h (1 Bft)
24.08.2012 02:00 25,5 C 15,9 C 0,0 UV-I 0,0 C 50 % 84 % 0 % 1009,2 hPa 0,5 l/m 0,2 km/h (0 Bft) 0,00 h 0,87 h 0,4 km/h (0 Bft)
24.08.2012 03:00 25,3 C 15,5 C 0,0 UV-I 0,0 C 51 % 87 % 0 % 1008,3 hPa 0,6 l/m 0,3 km/h (0 Bft) 0,00 h 0,83 h 0,6 km/h (0 Bft)
24.08.2012 04:00 25,2 C 15,3 C 0,0 UV-I 0,0 C 52 % 90 % 0 % 1008,0 hPa 0,7 l/m 0,4 km/h (0 Bft) 0,00 h 0,77 h 0,5 km/h (0 Bft)
24.08.2012 05:00 25,0 C 15,3 C 0,0 UV-I 0,0 C 53 % 92 % 0 % 1007,3 hPa 0,1 l/m 0,1 km/h (0 Bft) 0,00 h 0,13 h 0,0 km/h (0 Bft)
24.08.2012 06:00 24,9 C 15,3 C 0,0 UV-I 0,0 C 54 % 93 % 0 % 1006,8 hPa 0,0 l/m 0,0 km/h (0 Bft) 0,00 h 0,00 h 0,0 km/h (0 Bft)
24.08.2012 07:00 24,8 C 15,3 C 0,0 UV-I 0,0 C 55 % 94 % 0 % 1006,4 hPa 0,0 l/m 0,1 km/h (0 Bft) 0,00 h 0,00 h 0,3 km/h (0 Bft)
24.08.2012 08:00 24,8 C 15,8 C 0,2 UV-I 1,6 C 55 % 95 % 38 % 1006,4 hPa 0,0 l/m 0,2 km/h (0 Bft) 0,23 h 0,00 h 0,5 km/h (0 Bft)
24.08.2012 09:00 25,0 C 17,5 C 1,2 UV-I 5,7 C 55 % 92 % 100 % 1006,7 hPa 0,0 l/m 2,2 km/h (1 Bft) 1,00 h 0,00 h 2,8 km/h (1 Bft)
24.08.2012 10:00 25,3 C 20,0 C 3,0 UV-I 8,6 C 54 % 79 % 100 % 1007,0 hPa 0,0 l/m 1,3 km/h (1 Bft) 1,00 h 0,00 h 2,0 km/h (1 Bft)
24.08.2012 11:00 25,8 C 21,0 C 2,6 UV-I 6,3 C 52 % 69 % 100 % 1006,8 hPa 0,0 l/m 2,7 km/h (1 Bft) 1,00 h 0,00 h 5,4 km/h (1 Bft)
24.08.2012 12:00 26,3 C 21,9 C 2,7 UV-I 6,4 C 51 % 63 % 100 % 1006,9 hPa 0,0 l/m 2,8 km/h (1 Bft) 0,97 h 0,00 h 3,1 km/h (1 Bft)
24.08.2012 13:00 26,7 C 22,7 C 2,1 UV-I 4,8 C 49 % 59 % 100 % 1006,8 hPa 0,0 l/m 2,1 km/h (1 Bft) 1,00 h 0,00 h 4,2 km/h (1 Bft)
24.08.2012 14:00 27,3 C 23,9 C 3,2 UV-I 6,2 C 48 % 57 % 100 % 1007,2 hPa 0,0 l/m 3,1 km/h (1 Bft) 1,00 h 0,00 h 4,6 km/h (1 Bft)
24.08.2012 15:00 28,6 C 25,2 C 3,9 UV-I 6,5 C 45 % 49 % 100 % 1006,7 hPa 0,0 l/m 3,1 km/h (1 Bft) 1,00 h 0,00 h 4,2 km/h (1 Bft)
24.08.2012 16:00 29,1 C 25,1 C 2,9 UV-I 4,9 C 43 % 49 % 100 % 1005,7 hPa 0,0 l/m 2,6 km/h (1 Bft) 1,00 h 0,00 h 3,7 km/h (1 Bft)
24.08.2012 17:00 29,4 C 25,3 C 2,0 UV-I 4,1 C 42 % 49 % 84 % 1005,3 hPa 0,0 l/m 1,4 km/h (1 Bft) 0,67 h 0,00 h 1,7 km/h (1 Bft)
24.08.2012 18:00 28,6 C 24,6 C 0,6 UV-I 1,0 C 43 % 50 % 29 % 1005,1 hPa 0,0 l/m 0,3 km/h (0 Bft) 0,00 h 0,00 h 0,8 km/h (0 Bft)
24.08.2012 19:00 27,9 C 24,0 C 0,1 UV-I 0,1 C 44 % 51 % 3 % 1004,6 hPa 0,0 l/m 0,6 km/h (0 Bft) 0,00 h 0,00 h 1,1 km/h (1 Bft)
24.08.2012 20:00 27,3 C 23,0 C 0,0 UV-I 0,0 C 45 % 54 % 0 % 1004,3 hPa 0,0 l/m 0,0 km/h (0 Bft) 0,00 h 0,00 h 0,0 km/h (0 Bft)
24.08.2012 21:00 26,9 C 20,5 C 0,0 UV-I 0,0 C 47 % 70 % 0 % 1005,1 hPa 2,7 l/m 1,5 km/h (1 Bft) 0,00 h 0,87 h 3,3 km/h (1 Bft)
24.08.2012 22:00 26,5 C 17,8 C 0,0 UV-I 0,0 C 50 % 86 % 0 % 1005,9 hPa 1,6 l/m 0,6 km/h (0 Bft) 0,00 h 0,97 h 0,7 km/h (0 Bft)
24.08.2012 23:00 26,1 C 16,9 C 0,0 UV-I 0,0 C 52 % 89 % 0 % 1006,2 hPa 0,6 l/m 1,0 km/h (0 Bft) 0,00 h 0,30 h 1,4 km/h (1 Bft)
25.08.2012 00:00 25,8 C 16,7 C 0,0 UV-I 0,0 C 53 % 91 % 0 % 1006,1 hPa 0,0 l/m 0,6 km/h (0 Bft) 0,00 h 0,10 h 1,0 km/h (0 Bft)
25.08.2012 01:00 25,6 C 16,7 C 0,0 UV-I 0,0 C 54 % 92 % 0 % 1005,8 hPa 0,0 l/m 0,8 km/h (0 Bft) 0,00 h 0,03 h 1,9 km/h (1 Bft)
25.08.2012 02:00 25,4 C 16,7 C 0,0 UV-I 0,0 C 55 % 93 % 0 % 1006,0 hPa 0,0 l/m 0,5 km/h (0 Bft) 0,00 h 0,00 h 0,8 km/h (0 Bft)
25.08.2012 03:00 25,2 C 16,2 C 0,0 UV-I 0,0 C 56 % 94 % 0 % 1005,1 hPa 0,0 l/m 1,6 km/h (1 Bft) 0,00 h 0,00 h 2,6 km/h (1 Bft)
25.08.2012 04:00 25,1 C 15,7 C 0,0 UV-I 0,0 C 56 % 94 % 0 % 1005,2 hPa 0,0 l/m 0,3 km/h (0 Bft) 0,00 h 0,00 h 0,2 km/h (0 Bft)
25.08.2012 05:00 24,8 C 15,2 C 0,0 UV-I 0,0 C 57 % 94 % 0 % 1005,0 hPa 0,0 l/m 0,0 km/h (0 Bft) 0,00 h 0,00 h 0,0 km/h (0 Bft)
25.08.2012 06:00 24,8 C 15,3 C 0,0 UV-I 0,0 C 57 % 95 % 0 % 1004,9 hPa 0,1 l/m 0,1 km/h (0 Bft) 0,00 h 0,00 h 0,1 km/h (0 Bft)
25.08.2012 07:00 24,7 C 15,6 C 0,0 UV-I 0,0 C 57 % 95 % 0 % 1005,0 hPa 0,0 l/m 1,5 km/h (1 Bft) 0,00 h 0,00 h 2,2 km/h (1 Bft)
25.08.2012 08:00 24,7 C 16,4 C 0,1 UV-I 0,6 C 57 % 95 % 16 % 1005,0 hPa 0,0 l/m 0,9 km/h (0 Bft) 0,00 h 0,00 h 1,4 km/h (1 Bft)
25.08.2012 09:00 24,9 C 18,0 C 0,5 UV-I 2,1 C 57 % 93 % 58 % 1005,0 hPa 0,0 l/m 2,3 km/h (1 Bft) 0,17 h 0,00 h 4,1 km/h (1 Bft)
25.08.2012 10:00 25,2 C 19,0 C 0,7 UV-I 1,8 C 56 % 88 % 52 % 1005,2 hPa 0,0 l/m 4,2 km/h (1 Bft) 0,20 h 0,00 h 6,5 km/h (2 Bft)
25.08.2012 11:00 25,5 C 20,6 C 2,5 UV-I 4,7 C 55 % 77 % 97 % 1005,2 hPa 0,0 l/m 7,2 km/h (2 Bft) 0,93 h 0,00 h 11,8 km/h (2 Bft)
25.08.2012 12:00 25,9 C 21,6 C 2,5 UV-I 4,5 C 52 % 69 % 99 % 1005,5 hPa 0,0 l/m 8,3 km/h (2 Bft) 1,00 h 0,00 h 12,0 km/h (2 Bft)
25.08.2012 13:00 26,1 C 20,7 C 2,0 UV-I 2,6 C 52 % 77 % 62 % 1005,5 hPa 0,0 l/m 6,5 km/h (2 Bft) 0,47 h 0,17 h 10,2 km/h (2 Bft)
25.08.2012 14:00 26,6 C 21,6 C 2,0 UV-I 2,9 C 52 % 70 % 79 % 1006,0 hPa 0,0 l/m 9,1 km/h (2 Bft) 0,53 h 0,00 h 12,1 km/h (2 Bft)
25.08.2012 15:00 27,6 C 23,1 C 3,6 UV-I 4,2 C 48 % 60 % 100 % 1005,7 hPa 0,0 l/m 10,7 km/h (2 Bft) 1,00 h 0,00 h 12,4 km/h (3 Bft)
25.08.2012 16:00 28,5 C 23,6 C 3,3 UV-I 3,4 C 44 % 58 % 89 % 1004,5 hPa 0,0 l/m 8,0 km/h (2 Bft) 0,70 h 0,00 h 12,5 km/h (3 Bft)
25.08.2012 17:00 29,1 C 24,4 C 3,3 UV-I 4,1 C 42 % 51 % 92 % 1004,9 hPa 0,1 l/m 9,7 km/h (2 Bft) 0,87 h 0,00 h 13,1 km/h (3 Bft)
25.08.2012 18:00 28,0 C 23,2 C 0,7 UV-I 0,3 C 42 % 51 % 7 % 1005,2 hPa 0,0 l/m 8,0 km/h (2 Bft) 0,00 h 0,00 h 11,2 km/h (2 Bft)
25.08.2012 19:00 27,2 C 22,4 C 0,0 UV-I 0,0 C 43 % 53 % 0 % 1005,1 hPa 0,0 l/m 5,6 km/h (1 Bft) 0,00 h 0,00 h 7,7 km/h (2 Bft)
25.08.2012 20:00 26,6 C 21,6 C 0,0 UV-I 0,0 C 44 % 57 % 0 % 1005,5 hPa 0,0 l/m 1,9 km/h (1 Bft) 0,00 h 0,00 h 2,3 km/h (1 Bft)
25.08.2012 21:00 26,3 C 20,5 C 0,0 UV-I 0,0 C 46 % 60 % 0 % 1006,0 hPa 0,0 l/m 1,6 km/h (1 Bft) 0,00 h 0,00 h 2,4 km/h (1 Bft)
25.08.2012 22:00 26,0 C 19,9 C 0,0 UV-I 0,0 C 46 % 62 % 0 % 1006,3 hPa 0,0 l/m 2,1 km/h (1 Bft) 0,00 h 0,00 h 3,5 km/h (1 Bft)
25.08.2012 23:00 25,8 C 19,1 C 0,0 UV-I 0,0 C 47 % 65 % 0 % 1006,4 hPa 0,0 l/m 0,7 km/h (0 Bft) 0,00 h 0,00 h 1,9 km/h (1 Bft)
26.08.2012 00:00 25,5 C 18,3 C 0,0 UV-I 0,0 C 48 % 68 % 0 % 1006,1 hPa 0,0 l/m 1,5 km/h (1 Bft) 0,00 h 0,00 h 3,0 km/h (1 Bft)
26.08.2012 01:00 25,3 C 18,3 C 0,0 UV-I 0,0 C 48 % 68 % 0 % 1006,2 hPa 0,0 l/m 4,4 km/h (1 Bft) 0,00 h 0,00 h 8,0 km/h (2 Bft)
26.08.2012 02:00 25,2 C 18,1 C 0,0 UV-I 0,0 C 47 % 69 % 0 % 1006,4 hPa 0,0 l/m 6,3 km/h (2 Bft) 0,00 h 0,00 h 8,7 km/h (2 Bft)
26.08.2012 03:00 25,0 C 17,7 C 0,0 UV-I 0,0 C 47 % 71 % 0 % 1006,6 hPa 0,0 l/m 7,4 km/h (2 Bft) 0,00 h 0,00 h 10,7 km/h (2 Bft)
26.08.2012 04:00 24,8 C 17,6 C 0,0 UV-I 0,0 C 48 % 73 % 0 % 1006,7 hPa 0,0 l/m 6,5 km/h (2 Bft) 0,00 h 0,00 h 9,5 km/h (2 Bft)
26.08.2012 05:00 24,8 C 17,1 C 0,0 UV-I 0,0 C 49 % 77 % 0 % 1006,3 hPa 0,0 l/m 8,2 km/h (2 Bft) 0,00 h 0,00 h 13,1 km/h (3 Bft)
26.08.2012 06:00 24,5 C 16,3 C 0,0 UV-I 0,0 C 50 % 83 % 0 % 1006,6 hPa 1,0 l/m 7,1 km/h (2 Bft) 0,00 h 0,33 h 8,7 km/h (2 Bft)
26.08.2012 07:00 24,3 C 15,3 C 0,0 UV-I 0,0 C 53 % 90 % 0 % 1006,9 hPa 2,0 l/m 6,3 km/h (2 Bft) 0,00 h 0,50 h 9,3 km/h (2 Bft)
26.08.2012 08:00 24,1 C 15,0 C 0,0 UV-I 0,0 C 55 % 94 % 0 % 1007,7 hPa 1,1 l/m 6,5 km/h (2 Bft) 0,00 h 0,13 h 10,3 km/h (2 Bft)
26.08.2012 09:00 24,0 C 15,3 C 0,1 UV-I 0,0 C 55 % 94 % 0 % 1008,4 hPa 0,1 l/m 7,7 km/h (2 Bft) 0,00 h 0,00 h 11,3 km/h (2 Bft)
26.08.2012 10:00 24,1 C 16,0 C 0,4 UV-I 0,3 C 55 % 92 % 9 % 1009,1 hPa 0,0 l/m 8,1 km/h (2 Bft) 0,00 h 0,00 h 11,6 km/h (2 Bft)
26.08.2012 11:00 24,3 C 16,4 C 0,5 UV-I 0,5 C 54 % 90 % 16 % 1009,7 hPa 0,0 l/m 7,1 km/h (2 Bft) 0,00 h 0,23 h 11,6 km/h (2 Bft)
26.08.2012 12:00 24,3 C 16,4 C 0,8 UV-I 0,6 C 55 % 92 % 18 % 1010,5 hPa 0,1 l/m 8,4 km/h (2 Bft) 0,00 h 0,13 h 11,4 km/h (2 Bft)
26.08.2012 13:00 24,5 C 17,0 C 0,6 UV-I 0,8 C 55 % 91 % 23 % 1011,2 hPa 0,2 l/m 8,1 km/h (2 Bft) 0,00 h 0,40 h 12,4 km/h (3 Bft)
26.08.2012 14:00 24,5 C 16,8 C 0,6 UV-I 0,1 C 56 % 92 % 3 % 1012,1 hPa 0,4 l/m 6,2 km/h (2 Bft) 0,00 h 0,10 h 9,6 km/h (2 Bft)
26.08.2012 15:00 25,3 C 18,1 C 1,6 UV-I 2,2 C 56 % 90 % 60 % 1012,7 hPa 0,0 l/m 7,9 km/h (2 Bft) 0,37 h 0,20 h 12,2 km/h (2 Bft)
26.08.2012 16:00 25,7 C 17,9 C 0,8 UV-I 1,3 C 54 % 89 % 38 % 1013,4 hPa 0,0 l/m 6,6 km/h (2 Bft) 0,07 h 0,23 h 9,6 km/h (2 Bft)
26.08.2012 17:00 25,5 C 17,9 C 0,7 UV-I 1,5 C 54 % 90 % 42 % 1014,2 hPa 0,0 l/m 4,9 km/h (1 Bft) 0,20 h 0,00 h 7,4 km/h (2 Bft)
26.08.2012 18:00 25,5 C 18,2 C 0,4 UV-I 1,1 C 54 % 85 % 30 % 1014,9 hPa 0,0 l/m 7,5 km/h (2 Bft) 0,07 h 0,00 h 10,9 km/h (2 Bft)
26.08.2012 19:00 25,1 C 17,7 C 0,1 UV-I 0,2 C 54 % 86 % 4 % 1015,9 hPa 0,0 l/m 6,1 km/h (2 Bft) 0,00 h 0,00 h 7,6 km/h (2 Bft)
26.08.2012 20:00 24,6 C 16,7 C 0,0 UV-I 0,0 C 55 % 88 % 0 % 1017,0 hPa 0,5 l/m 2,5 km/h (1 Bft) 0,00 h 0,03 h 3,5 km/h (1 Bft)
26.08.2012 21:00 24,1 C 15,7 C 0,0 UV-I 0,0 C 57 % 91 % 0 % 1018,3 hPa 0,0 l/m 1,1 km/h (1 Bft) 0,00 h 0,00 h 1,9 km/h (1 Bft)
26.08.2012 22:00 23,9 C 15,1 C 0,0 UV-I 0,0 C 57 % 92 % 0 % 1018,9 hPa 0,0 l/m 0,3 km/h (0 Bft) 0,00 h 0,00 h 0,8 km/h (0 Bft)
26.08.2012 23:00 23,6 C 14,5 C 0,0 UV-I 0,0 C 58 % 93 % 0 % 1019,3 hPa 0,0 l/m 0,4 km/h (0 Bft) 0,00 h 0,00 h 1,1 km/h (1 Bft)
Min-Datum _ 26.08.12 23.08.12 20.08.12 20.08.12 23.08.12 23.08.12 20.08.12 25.08.12 - 20.08.12 - - 20.08.12
_ Min-Zeit 23:24 05:20 00:00 00:00 16:32 16:12 00:00 16:50 - 00:00 - - 00:00
Minimum _ 23,6 C 12,8 C 0,0 UV-I 0,0 C 37 % 39 % 0 % 1003,5 hPa - 0,0 km/h (0 Bft) - - 0,0 km/h (0 Bft)
Max-Datum _ 23.08.12 20.08.12 23.08.12 24.08.12 20.08.12 25.08.12 20.08.12 21.08.12 24.08.12 25.08.12 20.08.12 20.08.12 26.08.12
_ Max-Zeit 17:10 14:54 11:14 10:28 02:38 08:40 08:48 00:50 21:24 14:58 08:44 04:40 05:32
Maximum _ 30,9 C 30,0 C 5,6 UV-I 10,3 C 64 % 96 % 100 % 1019,9 hPa 2,7 l/m 13,7 km/h
O-NO (3 Bft)
0,03 h 0,03 h 37,3 km/h
W (5 Bft)
Durchschnitt _ 26,7 C 20,4 C 0,9 UV-I 1,8 C 53 % 75 % 33 % 1012,6 hPa #13,2 l/m 2,9 km/h (1 Bft) #45:14 h #9:22 h 4,4 km/h (1 Bft)
© 2012 W. Hausmann